sensor_id;sensor_type;location;lat;lon;timestamp;temperature;humidity
10089;DHT22;51898;49.864;8.550;2023-08-07T00:01:01;13.50;87.50
10089;DHT22;51898;49.864;8.550;2023-08-07T00:04:03;13.50;86.80
10089;DHT22;51898;49.864;8.550;2023-08-07T00:07:05;13.50;87.30
10089;DHT22;51898;49.864;8.550;2023-08-07T00:10:07;13.50;87.50
10089;DHT22;51898;49.864;8.550;2023-08-07T00:13:09;13.50;87.40
10089;DHT22;51898;49.864;8.550;2023-08-07T00:16:10;13.50;87.50
10089;DHT22;51898;49.864;8.550;2023-08-07T00:19:12;13.50;87.40
10089;DHT22;51898;49.864;8.550;2023-08-07T00:22:14;13.50;87.20
10089;DHT22;51898;49.864;8.550;2023-08-07T00:25:16;13.50;87.50
10089;DHT22;51898;49.864;8.550;2023-08-07T00:28:18;13.40;87.90
10089;DHT22;51898;49.864;8.550;2023-08-07T00:31:19;13.40;87.50
10089;DHT22;51898;49.864;8.550;2023-08-07T00:34:21;13.40;87.90
10089;DHT22;51898;49.864;8.550;2023-08-07T00:37:23;13.40;87.70
10089;DHT22;51898;49.864;8.550;2023-08-07T00:40:24;13.40;87.60
10089;DHT22;51898;49.864;8.550;2023-08-07T00:43:26;13.40;87.40
10089;DHT22;51898;49.864;8.550;2023-08-07T00:46:29;13.30;87.30
10089;DHT22;51898;49.864;8.550;2023-08-07T00:49:31;13.30;87.20
10089;DHT22;51898;49.864;8.550;2023-08-07T00:52:33;13.30;87.50
10089;DHT22;51898;49.864;8.550;2023-08-07T00:55:35;13.30;87.40
10089;DHT22;51898;49.864;8.550;2023-08-07T00:58:37;13.30;87.00
10089;DHT22;51898;49.864;8.550;2023-08-07T01:01:39;13.30;87.10
10089;DHT22;51898;49.864;8.550;2023-08-07T01:04:41;13.30;87.00
10089;DHT22;51898;49.864;8.550;2023-08-07T01:07:42;13.30;87.00
10089;DHT22;51898;49.864;8.550;2023-08-07T01:14:31;13.30;85.90
10089;DHT22;51898;49.864;8.550;2023-08-07T01:17:35;13.30;86.00
10089;DHT22;51898;49.864;8.550;2023-08-07T01:20:37;13.30;86.00
10089;DHT22;51898;49.864;8.550;2023-08-07T01:23:38;13.30;85.50
10089;DHT22;51898;49.864;8.550;2023-08-07T01:26:42;13.20;86.20
10089;DHT22;51898;49.864;8.550;2023-08-07T01:33:28;13.20;86.30
10089;DHT22;51898;49.864;8.550;2023-08-07T01:36:33;13.20;86.20
10089;DHT22;51898;49.864;8.550;2023-08-07T01:39:36;13.20;86.00
10089;DHT22;51898;49.864;8.550;2023-08-07T01:42:38;13.20;86.20
10089;DHT22;51898;49.864;8.550;2023-08-07T01:45:40;13.20;86.20
10089;DHT22;51898;49.864;8.550;2023-08-07T01:48:42;13.20;86.70
10089;DHT22;51898;49.864;8.550;2023-08-07T01:51:43;13.20;86.40
10089;DHT22;51898;49.864;8.550;2023-08-07T01:54:45;13.10;86.10
10089;DHT22;51898;49.864;8.550;2023-08-07T01:57:47;13.10;85.90
10089;DHT22;51898;49.864;8.550;2023-08-07T02:00:48;13.20;86.10
10089;DHT22;51898;49.864;8.550;2023-08-07T02:03:50;13.20;85.60
10089;DHT22;51898;49.864;8.550;2023-08-07T02:06:52;13.20;85.10
10089;DHT22;51898;49.864;8.550;2023-08-07T02:09:54;13.20;85.40
10089;DHT22;51898;49.864;8.550;2023-08-07T02:12:57;13.30;84.90
10089;DHT22;51898;49.864;8.550;2023-08-07T02:16:00;13.30;84.00
10089;DHT22;51898;49.864;8.550;2023-08-07T02:19:02;13.30;84.20
10089;DHT22;51898;49.864;8.550;2023-08-07T02:22:05;13.30;84.10
10089;DHT22;51898;49.864;8.550;2023-08-07T02:25:07;13.30;83.20
10089;DHT22;51898;49.864;8.550;2023-08-07T02:28:09;13.40;82.90
10089;DHT22;51898;49.864;8.550;2023-08-07T02:31:11;13.40;82.40
10089;DHT22;51898;49.864;8.550;2023-08-07T02:34:12;13.40;82.10
10089;DHT22;51898;49.864;8.550;2023-08-07T02:37:14;13.40;82.50
10089;DHT22;51898;49.864;8.550;2023-08-07T02:40:16;13.40;81.70
10089;DHT22;51898;49.864;8.550;2023-08-07T02:43:20;13.40;82.10
10089;DHT22;51898;49.864;8.550;2023-08-07T02:46:22;13.40;81.80
10089;DHT22;51898;49.864;8.550;2023-08-07T02:49:23;13.40;81.90
10089;DHT22;51898;49.864;8.550;2023-08-07T02:52:25;13.40;80.70
10089;DHT22;51898;49.864;8.550;2023-08-07T02:55:27;13.50;81.10
10089;DHT22;51898;49.864;8.550;2023-08-07T02:58:28;13.50;80.80
10089;DHT22;51898;49.864;8.550;2023-08-07T03:01:30;13.40;81.00
10089;DHT22;51898;49.864;8.550;2023-08-07T03:04:32;13.40;81.30
10089;DHT22;51898;49.864;8.550;2023-08-07T03:07:34;13.40;81.00
10089;DHT22;51898;49.864;8.550;2023-08-07T03:10:35;13.40;81.40
10089;DHT22;51898;49.864;8.550;2023-08-07T03:13:37;13.40;81.00
10089;DHT22;51898;49.864;8.550;2023-08-07T03:16:39;13.50;80.80
10089;DHT22;51898;49.864;8.550;2023-08-07T03:19:43;13.40;81.00
10089;DHT22;51898;49.864;8.550;2023-08-07T03:22:44;13.40;81.20
10089;DHT22;51898;49.864;8.550;2023-08-07T03:25:46;13.40;81.30
10089;DHT22;51898;49.864;8.550;2023-08-07T03:28:48;13.50;81.20
10089;DHT22;51898;49.864;8.550;2023-08-07T03:31:50;13.50;80.30
10089;DHT22;51898;49.864;8.550;2023-08-07T03:34:52;13.50;80.70
10089;DHT22;51898;49.864;8.550;2023-08-07T03:37:54;13.50;80.50
10089;DHT22;51898;49.864;8.550;2023-08-07T03:40:58;13.50;80.50
10089;DHT22;51898;49.864;8.550;2023-08-07T03:43:59;13.50;80.70
10089;DHT22;51898;49.864;8.550;2023-08-07T03:47:01;13.50;81.10
10089;DHT22;51898;49.864;8.550;2023-08-07T03:50:03;13.50;80.50
10089;DHT22;51898;49.864;8.550;2023-08-07T03:53:07;13.50;80.90
10089;DHT22;51898;49.864;8.550;2023-08-07T03:56:09;13.50;80.60
10089;DHT22;51898;49.864;8.550;2023-08-07T03:59:11;13.50;80.60
10089;DHT22;51898;49.864;8.550;2023-08-07T04:02:12;13.50;80.70
10089;DHT22;51898;49.864;8.550;2023-08-07T04:05:14;13.50;81.00
10089;DHT22;51898;49.864;8.550;2023-08-07T04:08:16;13.40;80.80
10089;DHT22;51898;49.864;8.550;2023-08-07T04:11:17;13.50;80.70
10089;DHT22;51898;49.864;8.550;2023-08-07T04:14:19;13.50;80.70
10089;DHT22;51898;49.864;8.550;2023-08-07T04:17:21;13.50;80.00
10089;DHT22;51898;49.864;8.550;2023-08-07T04:20:24;13.40;80.10
10089;DHT22;51898;49.864;8.550;2023-08-07T04:23:26;13.50;80.60
10089;DHT22;51898;49.864;8.550;2023-08-07T04:26:27;13.40;80.20
10089;DHT22;51898;49.864;8.550;2023-08-07T04:29:29;13.40;80.30
10089;DHT22;51898;49.864;8.550;2023-08-07T04:32:31;13.50;80.20
10089;DHT22;51898;49.864;8.550;2023-08-07T04:35:32;13.50;79.90
10089;DHT22;51898;49.864;8.550;2023-08-07T04:38:34;13.50;80.00
10089;DHT22;51898;49.864;8.550;2023-08-07T04:41:36;13.50;79.90
10089;DHT22;51898;49.864;8.550;2023-08-07T04:44:38;13.60;79.30
10089;DHT22;51898;49.864;8.550;2023-08-07T04:47:39;13.60;79.40
10089;DHT22;51898;49.864;8.550;2023-08-07T04:50:42;13.60;79.20
10089;DHT22;51898;49.864;8.550;2023-08-07T04:53:43;13.60;79.50
10089;DHT22;51898;49.864;8.550;2023-08-07T04:56:47;13.60;79.60
10089;DHT22;51898;49.864;8.550;2023-08-07T04:59:48;13.60;79.10
10089;DHT22;51898;49.864;8.550;2023-08-07T05:02:50;13.60;79.30
10089;DHT22;51898;49.864;8.550;2023-08-07T05:05:59;13.60;79.30
10089;DHT22;51898;49.864;8.550;2023-08-07T05:09:02;13.60;79.00
10089;DHT22;51898;49.864;8.550;2023-08-07T05:12:05;13.60;79.20
10089;DHT22;51898;49.864;8.550;2023-08-07T05:15:08;13.70;78.80
10089;DHT22;51898;49.864;8.550;2023-08-07T05:18:10;13.70;79.10
10089;DHT22;51898;49.864;8.550;2023-08-07T05:21:12;13.70;78.70
10089;DHT22;51898;49.864;8.550;2023-08-07T05:24:14;13.70;78.80
10089;DHT22;51898;49.864;8.550;2023-08-07T05:27:15;13.70;79.20
10089;DHT22;51898;49.864;8.550;2023-08-07T05:30:17;13.70;78.90
10089;DHT22;51898;49.864;8.550;2023-08-07T05:33:19;13.70;79.10
10089;DHT22;51898;49.864;8.550;2023-08-07T05:36:20;13.70;79.00
10089;DHT22;51898;49.864;8.550;2023-08-07T05:39:22;13.70;80.00
10089;DHT22;51898;49.864;8.550;2023-08-07T05:42:24;13.70;80.20
10089;DHT22;51898;49.864;8.550;2023-08-07T05:45:26;13.70;79.40
10089;DHT22;51898;49.864;8.550;2023-08-07T05:48:27;13.80;80.80
10089;DHT22;51898;49.864;8.550;2023-08-07T05:51:29;13.90;80.00
10089;DHT22;51898;49.864;8.550;2023-08-07T05:54:31;13.90;78.50
10089;DHT22;51898;49.864;8.550;2023-08-07T05:57:34;13.90;78.70
10089;DHT22;51898;49.864;8.550;2023-08-07T06:00:35;13.90;78.60
10089;DHT22;51898;49.864;8.550;2023-08-07T06:03:37;13.90;78.40
10089;DHT22;51898;49.864;8.550;2023-08-07T06:06:39;13.90;78.40
10089;DHT22;51898;49.864;8.550;2023-08-07T06:09:41;13.90;78.10
10089;DHT22;51898;49.864;8.550;2023-08-07T06:12:43;13.90;78.80
10089;DHT22;51898;49.864;8.550;2023-08-07T06:15:45;13.90;78.20
10089;DHT22;51898;49.864;8.550;2023-08-07T06:18:47;14.00;78.70
10089;DHT22;51898;49.864;8.550;2023-08-07T06:21:48;14.00;78.20
10089;DHT22;51898;49.864;8.550;2023-08-07T06:24:50;14.00;78.10
10089;DHT22;51898;49.864;8.550;2023-08-07T06:27:52;14.00;78.60
10089;DHT22;51898;49.864;8.550;2023-08-07T06:31:04;13.90;78.40
10089;DHT22;51898;49.864;8.550;2023-08-07T06:34:06;13.80;79.40
10089;DHT22;51898;49.864;8.550;2023-08-07T06:37:07;13.80;79.80
10089;DHT22;51898;49.864;8.550;2023-08-07T06:40:10;13.80;80.00
10089;DHT22;51898;49.864;8.550;2023-08-07T06:43:11;13.70;81.30
10089;DHT22;51898;49.864;8.550;2023-08-07T06:46:13;13.70;81.00
10089;DHT22;51898;49.864;8.550;2023-08-07T06:49:15;13.70;81.50
10089;DHT22;51898;49.864;8.550;2023-08-07T06:52:17;13.70;81.50
10089;DHT22;51898;49.864;8.550;2023-08-07T06:55:18;13.70;81.30
10089;DHT22;51898;49.864;8.550;2023-08-07T06:58:20;13.60;81.00
10089;DHT22;51898;49.864;8.550;2023-08-07T07:01:22;13.60;81.30
10089;DHT22;51898;49.864;8.550;2023-08-07T07:04:23;13.70;81.80
10089;DHT22;51898;49.864;8.550;2023-08-07T07:07:25;13.70;81.70
10089;DHT22;51898;49.864;8.550;2023-08-07T07:10:27;13.60;81.90
10089;DHT22;51898;49.864;8.550;2023-08-07T07:13:28;13.70;82.00
10089;DHT22;51898;49.864;8.550;2023-08-07T07:16:30;13.70;81.90
10089;DHT22;51898;49.864;8.550;2023-08-07T07:19:33;13.70;82.00
10089;DHT22;51898;49.864;8.550;2023-08-07T07:22:35;13.80;82.00
10089;DHT22;51898;49.864;8.550;2023-08-07T07:25:37;13.90;82.40
10089;DHT22;51898;49.864;8.550;2023-08-07T07:28:41;13.90;82.00
10089;DHT22;51898;49.864;8.550;2023-08-07T07:31:43;14.00;81.20
10089;DHT22;51898;49.864;8.550;2023-08-07T07:34:45;14.10;81.80
10089;DHT22;51898;49.864;8.550;2023-08-07T07:37:46;14.30;80.80
10089;DHT22;51898;49.864;8.550;2023-08-07T07:40:48;14.30;80.00
10089;DHT22;51898;49.864;8.550;2023-08-07T07:43:50;14.30;80.10
10089;DHT22;51898;49.864;8.550;2023-08-07T07:46:51;14.20;79.10
10089;DHT22;51898;49.864;8.550;2023-08-07T07:50:05;14.30;78.40
10089;DHT22;51898;49.864;8.550;2023-08-07T07:53:07;14.30;78.90
10089;DHT22;51898;49.864;8.550;2023-08-07T07:56:09;14.40;78.40
10089;DHT22;51898;49.864;8.550;2023-08-07T07:59:12;14.50;77.80
10089;DHT22;51898;49.864;8.550;2023-08-07T08:02:14;14.50;78.10
10089;DHT22;51898;49.864;8.550;2023-08-07T08:05:17;14.50;77.10
10089;DHT22;51898;49.864;8.550;2023-08-07T08:08:19;14.60;77.00
10089;DHT22;51898;49.864;8.550;2023-08-07T08:11:21;14.60;76.80
10089;DHT22;51898;49.864;8.550;2023-08-07T08:14:23;14.50;76.70
10089;DHT22;51898;49.864;8.550;2023-08-07T08:17:25;14.60;76.70
10089;DHT22;51898;49.864;8.550;2023-08-07T08:20:27;14.60;76.60
10089;DHT22;51898;49.864;8.550;2023-08-07T08:23:31;14.70;75.80
10089;DHT22;51898;49.864;8.550;2023-08-07T08:26:33;14.70;74.90
10089;DHT22;51898;49.864;8.550;2023-08-07T08:29:35;14.60;75.10
10089;DHT22;51898;49.864;8.550;2023-08-07T08:32:36;14.70;75.50
10089;DHT22;51898;49.864;8.550;2023-08-07T08:35:39;14.70;74.90
10089;DHT22;51898;49.864;8.550;2023-08-07T08:38:40;14.70;75.10
10089;DHT22;51898;49.864;8.550;2023-08-07T08:41:43;14.70;75.80
10089;DHT22;51898;49.864;8.550;2023-08-07T08:44:55;14.70;75.40
10089;DHT22;51898;49.864;8.550;2023-08-07T08:48:01;14.80;74.30
10089;DHT22;51898;49.864;8.550;2023-08-07T08:51:04;14.80;74.30
10089;DHT22;51898;49.864;8.550;2023-08-07T08:54:06;14.80;74.30
10089;DHT22;51898;49.864;8.550;2023-08-07T08:57:11;14.60;74.80
10089;DHT22;51898;49.864;8.550;2023-08-07T09:00:14;14.60;75.30
10089;DHT22;51898;49.864;8.550;2023-08-07T09:03:27;14.60;75.70
10089;DHT22;51898;49.864;8.550;2023-08-07T09:06:31;14.70;75.20
10089;DHT22;51898;49.864;8.550;2023-08-07T09:09:33;14.70;75.40
10089;DHT22;51898;49.864;8.550;2023-08-07T09:12:39;14.70;76.20
10089;DHT22;51898;49.864;8.550;2023-08-07T09:15:43;14.80;74.30
10089;DHT22;51898;49.864;8.550;2023-08-07T09:18:49;14.80;75.70
10089;DHT22;51898;49.864;8.550;2023-08-07T09:21:51;15.00;75.60
10089;DHT22;51898;49.864;8.550;2023-08-07T09:24:53;15.10;75.50
10089;DHT22;51898;49.864;8.550;2023-08-07T09:27:55;15.20;74.20
10089;DHT22;51898;49.864;8.550;2023-08-07T09:30:58;15.20;74.70
10089;DHT22;51898;49.864;8.550;2023-08-07T09:34:04;15.20;74.70
10089;DHT22;51898;49.864;8.550;2023-08-07T09:37:09;15.20;75.70
10089;DHT22;51898;49.864;8.550;2023-08-07T09:40:11;15.20;75.50
10089;DHT22;51898;49.864;8.550;2023-08-07T09:43:21;15.00;76.80
10089;DHT22;51898;49.864;8.550;2023-08-07T09:46:25;14.80;77.40
10089;DHT22;51898;49.864;8.550;2023-08-07T09:49:32;14.60;79.40
10089;DHT22;51898;49.864;8.550;2023-08-07T09:52:34;14.50;80.20
10089;DHT22;51898;49.864;8.550;2023-08-07T09:55:36;14.50;81.70
10089;DHT22;51898;49.864;8.550;2023-08-07T09:58:38;14.30;81.40
10089;DHT22;51898;49.864;8.550;2023-08-07T10:01:40;14.30;81.70
10089;DHT22;51898;49.864;8.550;2023-08-07T10:04:45;14.30;81.00
10089;DHT22;51898;49.864;8.550;2023-08-07T10:07:47;14.30;81.80
10089;DHT22;51898;49.864;8.550;2023-08-07T10:10:49;14.10;82.70
10089;DHT22;51898;49.864;8.550;2023-08-07T10:13:52;14.10;83.30
10089;DHT22;51898;49.864;8.550;2023-08-07T10:16:55;14.10;83.70
10089;DHT22;51898;49.864;8.550;2023-08-07T10:19:58;14.20;84.20
10089;DHT22;51898;49.864;8.550;2023-08-07T10:23:09;14.20;84.00
10089;DHT22;51898;49.864;8.550;2023-08-07T10:26:12;14.20;83.60
10089;DHT22;51898;49.864;8.550;2023-08-07T10:29:19;14.30;83.60
10089;DHT22;51898;49.864;8.550;2023-08-07T10:32:24;14.30;83.90
10089;DHT22;51898;49.864;8.550;2023-08-07T10:35:31;14.50;85.00
10089;DHT22;51898;49.864;8.550;2023-08-07T10:38:32;14.60;85.20
10089;DHT22;51898;49.864;8.550;2023-08-07T10:41:45;14.70;83.70
10089;DHT22;51898;49.864;8.550;2023-08-07T10:44:48;14.80;84.00
10089;DHT22;51898;49.864;8.550;2023-08-07T10:48:12;14.90;83.90
10089;DHT22;51898;49.864;8.550;2023-08-07T10:51:16;15.10;83.90
10089;DHT22;51898;49.864;8.550;2023-08-07T10:54:19;15.30;83.10
10089;DHT22;51898;49.864;8.550;2023-08-07T10:57:21;15.30;81.10
10089;DHT22;51898;49.864;8.550;2023-08-07T11:00:27;15.40;82.00
10089;DHT22;51898;49.864;8.550;2023-08-07T11:03:30;15.70;81.10
10089;DHT22;51898;49.864;8.550;2023-08-07T11:06:37;15.90;82.40
10089;DHT22;51898;49.864;8.550;2023-08-07T11:09:40;16.10;79.30
10089;DHT22;51898;49.864;8.550;2023-08-07T11:12:43;16.20;79.00
10089;DHT22;51898;49.864;8.550;2023-08-07T11:15:46;16.10;79.20
10089;DHT22;51898;49.864;8.550;2023-08-07T11:18:49;16.10;79.20
10089;DHT22;51898;49.864;8.550;2023-08-07T11:21:51;16.10;80.70
10089;DHT22;51898;49.864;8.550;2023-08-07T11:24:53;16.10;80.60
10089;DHT22;51898;49.864;8.550;2023-08-07T11:27:54;16.00;80.60
10089;DHT22;51898;49.864;8.550;2023-08-07T11:30:57;16.00;80.60
10089;DHT22;51898;49.864;8.550;2023-08-07T11:34:00;16.10;81.20
10089;DHT22;51898;49.864;8.550;2023-08-07T11:37:04;16.10;81.30
10089;DHT22;51898;49.864;8.550;2023-08-07T11:40:06;16.20;82.10
10089;DHT22;51898;49.864;8.550;2023-08-07T11:43:08;16.40;82.10
10089;DHT22;51898;49.864;8.550;2023-08-07T11:46:13;16.50;80.80
10089;DHT22;51898;49.864;8.550;2023-08-07T11:49:15;16.70;80.40
10089;DHT22;51898;49.864;8.550;2023-08-07T11:52:17;16.90;80.70
10089;DHT22;51898;49.864;8.550;2023-08-07T11:55:19;17.00;80.80
10089;DHT22;51898;49.864;8.550;2023-08-07T11:58:21;17.00;81.20
10089;DHT22;51898;49.864;8.550;2023-08-07T12:01:25;17.10;81.40
10089;DHT22;51898;49.864;8.550;2023-08-07T12:04:31;17.00;80.70
10089;DHT22;51898;49.864;8.550;2023-08-07T12:07:37;17.00;81.30
10089;DHT22;51898;49.864;8.550;2023-08-07T12:10:39;16.80;76.50
10089;DHT22;51898;49.864;8.550;2023-08-07T12:13:44;16.60;74.40
10089;DHT22;51898;49.864;8.550;2023-08-07T12:16:47;16.50;75.80
10089;DHT22;51898;49.864;8.550;2023-08-07T12:19:50;16.50;76.90
10089;DHT22;51898;49.864;8.550;2023-08-07T12:22:52;16.60;80.80
10089;DHT22;51898;49.864;8.550;2023-08-07T12:25:54;16.50;81.00
10089;DHT22;51898;49.864;8.550;2023-08-07T12:28:59;16.50;81.70
10089;DHT22;51898;49.864;8.550;2023-08-07T12:32:01;16.50;82.40
10089;DHT22;51898;49.864;8.550;2023-08-07T12:35:04;16.60;81.90
10089;DHT22;51898;49.864;8.550;2023-08-07T12:38:13;16.80;82.30
10089;DHT22;51898;49.864;8.550;2023-08-07T12:41:18;17.00;81.60
10089;DHT22;51898;49.864;8.550;2023-08-07T12:44:23;17.10;79.70
10089;DHT22;51898;49.864;8.550;2023-08-07T12:47:25;17.40;79.60
10089;DHT22;51898;49.864;8.550;2023-08-07T12:50:27;17.80;78.50
10089;DHT22;51898;49.864;8.550;2023-08-07T12:53:29;18.00;77.30
10089;DHT22;51898;49.864;8.550;2023-08-07T12:56:33;18.20;75.20
10089;DHT22;51898;49.864;8.550;2023-08-07T12:59:37;18.30;74.00
10089;DHT22;51898;49.864;8.550;2023-08-07T13:02:46;18.40;73.50
10089;DHT22;51898;49.864;8.550;2023-08-07T13:05:48;18.30;71.50
10089;DHT22;51898;49.864;8.550;2023-08-07T13:08:49;18.10;61.90
10089;DHT22;51898;49.864;8.550;2023-08-07T13:11:51;18.00;62.80
10089;DHT22;51898;49.864;8.550;2023-08-07T13:14:53;18.20;62.40
10089;DHT22;51898;49.864;8.550;2023-08-07T13:17:55;18.40;58.90
10089;DHT22;51898;49.864;8.550;2023-08-07T13:20:56;18.70;60.70
10089;DHT22;51898;49.864;8.550;2023-08-07T13:23:58;18.90;59.00
10089;DHT22;51898;49.864;8.550;2023-08-07T13:27:00;19.10;59.90
10089;DHT22;51898;49.864;8.550;2023-08-07T13:30:03;19.40;58.20
10089;DHT22;51898;49.864;8.550;2023-08-07T13:33:05;19.70;60.70
10089;DHT22;51898;49.864;8.550;2023-08-07T13:36:07;20.10;59.50
10089;DHT22;51898;49.864;8.550;2023-08-07T13:39:09;20.30;56.60
10089;DHT22;51898;49.864;8.550;2023-08-07T13:42:10;20.10;55.80
10089;DHT22;51898;49.864;8.550;2023-08-07T13:45:12;19.90;57.50
10089;DHT22;51898;49.864;8.550;2023-08-07T13:48:15;19.80;56.70
10089;DHT22;51898;49.864;8.550;2023-08-07T13:51:17;19.80;56.50
10089;DHT22;51898;49.864;8.550;2023-08-07T13:54:19;19.70;56.50
10089;DHT22;51898;49.864;8.550;2023-08-07T13:57:21;19.90;56.80
10089;DHT22;51898;49.864;8.550;2023-08-07T14:00:24;20.00;55.40
10089;DHT22;51898;49.864;8.550;2023-08-07T14:03:25;19.90;55.60
10089;DHT22;51898;49.864;8.550;2023-08-07T14:06:27;20.00;55.00
10089;DHT22;51898;49.864;8.550;2023-08-07T14:09:29;20.10;54.90
10089;DHT22;51898;49.864;8.550;2023-08-07T14:12:31;20.20;56.00
10089;DHT22;51898;49.864;8.550;2023-08-07T14:15:33;20.20;54.90
10089;DHT22;51898;49.864;8.550;2023-08-07T14:18:34;20.30;54.80
10089;DHT22;51898;49.864;8.550;2023-08-07T14:21:36;20.30;54.80
10089;DHT22;51898;49.864;8.550;2023-08-07T14:24:38;20.20;54.20
10089;DHT22;51898;49.864;8.550;2023-08-07T14:27:40;20.30;54.10
10089;DHT22;51898;49.864;8.550;2023-08-07T14:30:41;20.30;53.20
10089;DHT22;51898;49.864;8.550;2023-08-07T14:33:43;20.30;51.30
10089;DHT22;51898;49.864;8.550;2023-08-07T14:36:45;20.40;51.40
10089;DHT22;51898;49.864;8.550;2023-08-07T14:39:47;20.50;52.10
10089;DHT22;51898;49.864;8.550;2023-08-07T14:42:48;20.60;51.10
10089;DHT22;51898;49.864;8.550;2023-08-07T14:45:50;20.90;51.70
10089;DHT22;51898;49.864;8.550;2023-08-07T14:48:52;21.10;51.20
10089;DHT22;51898;49.864;8.550;2023-08-07T14:51:53;21.00;51.10
10089;DHT22;51898;49.864;8.550;2023-08-07T14:54:56;21.10;50.10
10089;DHT22;51898;49.864;8.550;2023-08-07T14:57:59;21.20;50.60
10089;DHT22;51898;49.864;8.550;2023-08-07T15:01:00;21.50;49.80
10089;DHT22;51898;49.864;8.550;2023-08-07T15:04:02;21.50;49.00
10089;DHT22;51898;49.864;8.550;2023-08-07T15:07:04;21.40;49.90
10089;DHT22;51898;49.864;8.550;2023-08-07T15:10:08;21.40;51.20
10089;DHT22;51898;49.864;8.550;2023-08-07T15:13:09;21.20;50.10
10089;DHT22;51898;49.864;8.550;2023-08-07T15:16:11;21.10;50.40
10089;DHT22;51898;49.864;8.550;2023-08-07T15:19:13;21.00;49.60
10089;DHT22;51898;49.864;8.550;2023-08-07T15:22:15;21.10;51.80
10089;DHT22;51898;49.864;8.550;2023-08-07T15:25:17;21.20;50.60
10089;DHT22;51898;49.864;8.550;2023-08-07T15:28:19;21.40;50.10
10089;DHT22;51898;49.864;8.550;2023-08-07T15:31:21;21.50;50.60
10089;DHT22;51898;49.864;8.550;2023-08-07T15:34:22;21.50;49.80
10089;DHT22;51898;49.864;8.550;2023-08-07T15:37:24;21.20;48.30
10089;DHT22;51898;49.864;8.550;2023-08-07T15:40:26;21.00;49.10
10089;DHT22;51898;49.864;8.550;2023-08-07T15:43:28;20.90;50.00
10089;DHT22;51898;49.864;8.550;2023-08-07T15:46:30;20.80;51.30
10089;DHT22;51898;49.864;8.550;2023-08-07T15:49:32;20.90;51.10
10089;DHT22;51898;49.864;8.550;2023-08-07T15:52:33;21.20;50.30
10089;DHT22;51898;49.864;8.550;2023-08-07T15:55:35;21.40;49.70
10089;DHT22;51898;49.864;8.550;2023-08-07T15:58:37;21.70;48.40
10089;DHT22;51898;49.864;8.550;2023-08-07T16:01:39;22.20;47.30
10089;DHT22;51898;49.864;8.550;2023-08-07T16:04:40;22.50;47.60
10089;DHT22;51898;49.864;8.550;2023-08-07T16:07:42;22.90;45.50
10089;DHT22;51898;49.864;8.550;2023-08-07T16:10:44;22.80;43.70
10089;DHT22;51898;49.864;8.550;2023-08-07T16:13:46;22.60;45.40
10089;DHT22;51898;49.864;8.550;2023-08-07T16:16:47;22.60;45.80
10089;DHT22;51898;49.864;8.550;2023-08-07T16:19:49;22.90;42.60
10089;DHT22;51898;49.864;8.550;2023-08-07T16:22:51;23.20;43.40
10089;DHT22;51898;49.864;8.550;2023-08-07T16:25:52;23.60;43.20
10089;DHT22;51898;49.864;8.550;2023-08-07T16:28:54;23.90;41.60
10089;DHT22;51898;49.864;8.550;2023-08-07T16:31:56;24.10;41.60
10089;DHT22;51898;49.864;8.550;2023-08-07T16:34:58;23.70;41.60
10089;DHT22;51898;49.864;8.550;2023-08-07T16:38:00;23.50;41.00
10089;DHT22;51898;49.864;8.550;2023-08-07T16:41:01;23.70;40.80
10089;DHT22;51898;49.864;8.550;2023-08-07T16:44:03;24.00;40.60
10089;DHT22;51898;49.864;8.550;2023-08-07T16:47:05;24.20;40.60
10089;DHT22;51898;49.864;8.550;2023-08-07T16:50:08;23.80;41.00
10089;DHT22;51898;49.864;8.550;2023-08-07T16:53:10;23.80;41.80
10089;DHT22;51898;49.864;8.550;2023-08-07T16:56:13;23.60;42.80
10089;DHT22;51898;49.864;8.550;2023-08-07T16:59:15;23.00;42.70
10089;DHT22;51898;49.864;8.550;2023-08-07T17:02:16;23.00;42.90
10089;DHT22;51898;49.864;8.550;2023-08-07T17:05:21;23.00;43.80
10089;DHT22;51898;49.864;8.550;2023-08-07T17:08:23;23.40;43.60
10089;DHT22;51898;49.864;8.550;2023-08-07T17:11:25;24.10;41.10
10089;DHT22;51898;49.864;8.550;2023-08-07T17:14:29;24.30;41.60
10089;DHT22;51898;49.864;8.550;2023-08-07T17:17:31;24.70;41.00
10089;DHT22;51898;49.864;8.550;2023-08-07T17:20:33;24.60;40.40
10089;DHT22;51898;49.864;8.550;2023-08-07T17:23:34;24.40;40.10
10089;DHT22;51898;49.864;8.550;2023-08-07T17:26:36;23.60;40.20
10089;DHT22;51898;49.864;8.550;2023-08-07T17:29:38;23.30;41.60
10089;DHT22;51898;49.864;8.550;2023-08-07T17:32:39;23.80;40.90
10089;DHT22;51898;49.864;8.550;2023-08-07T17:35:41;24.00;40.00
10089;DHT22;51898;49.864;8.550;2023-08-07T17:38:43;24.30;40.80
10089;DHT22;51898;49.864;8.550;2023-08-07T17:41:45;24.20;39.70
10089;DHT22;51898;49.864;8.550;2023-08-07T17:44:49;23.20;42.20
10089;DHT22;51898;49.864;8.550;2023-08-07T17:47:51;22.50;43.50
10089;DHT22;51898;49.864;8.550;2023-08-07T17:50:53;21.70;45.10
10089;DHT22;51898;49.864;8.550;2023-08-07T17:53:55;21.10;46.10
10089;DHT22;51898;49.864;8.550;2023-08-07T17:56:57;20.70;46.50
10089;DHT22;51898;49.864;8.550;2023-08-07T17:59:59;20.30;47.60
10089;DHT22;51898;49.864;8.550;2023-08-07T18:03:01;20.30;48.50
10089;DHT22;51898;49.864;8.550;2023-08-07T18:06:04;20.80;46.90
10089;DHT22;51898;49.864;8.550;2023-08-07T18:09:06;21.20;46.40
10089;DHT22;51898;49.864;8.550;2023-08-07T18:12:09;21.10;46.90
10089;DHT22;51898;49.864;8.550;2023-08-07T18:15:11;20.90;47.30
10089;DHT22;51898;49.864;8.550;2023-08-07T18:18:13;20.60;48.20
10089;DHT22;51898;49.864;8.550;2023-08-07T18:21:14;20.20;49.00
10089;DHT22;51898;49.864;8.550;2023-08-07T18:24:16;20.00;49.80
10089;DHT22;51898;49.864;8.550;2023-08-07T18:27:19;19.80;50.90
10089;DHT22;51898;49.864;8.550;2023-08-07T18:30:23;19.70;52.30
10089;DHT22;51898;49.864;8.550;2023-08-07T18:33:25;19.50;52.80
10089;DHT22;51898;49.864;8.550;2023-08-07T18:36:29;19.20;53.30
10089;DHT22;51898;49.864;8.550;2023-08-07T18:39:30;19.00;54.10
10089;DHT22;51898;49.864;8.550;2023-08-07T18:42:32;18.70;54.20
10089;DHT22;51898;49.864;8.550;2023-08-07T18:45:34;18.40;54.20
10089;DHT22;51898;49.864;8.550;2023-08-07T18:48:36;18.30;54.40
10089;DHT22;51898;49.864;8.550;2023-08-07T18:51:38;18.20;54.50
10089;DHT22;51898;49.864;8.550;2023-08-07T18:54:40;18.00;55.30
10089;DHT22;51898;49.864;8.550;2023-08-07T18:57:41;17.90;55.20
10089;DHT22;51898;49.864;8.550;2023-08-07T19:00:43;17.80;55.50
10089;DHT22;51898;49.864;8.550;2023-08-07T19:03:45;17.70;55.70
10089;DHT22;51898;49.864;8.550;2023-08-07T19:06:47;17.60;56.30
10089;DHT22;51898;49.864;8.550;2023-08-07T19:09:48;17.60;56.20
10089;DHT22;51898;49.864;8.550;2023-08-07T19:12:50;17.50;56.40
10089;DHT22;51898;49.864;8.550;2023-08-07T19:15:53;17.40;57.10
10089;DHT22;51898;49.864;8.550;2023-08-07T19:18:55;17.40;57.10